< < Back
Terminal Aerodrome Forecast


Current Version              Previous Versions:   1  2  3  4  5  6  7  8  9  

Terminal Aerodrome Forecast

611
FTUS42 KGSP 042328
TAFCLT
TAF
KCLT 042328Z 0500/0524 25008KT P6SM FEW050 BKN100
     FM050900 23003KT P6SM FEW020 BKN080
     FM051500 22007KT P6SM FEW050 BKN100
     FM051800 23008G16KT P6SM SCT060 BKN120 PROB30 0518/0522 TSRA
      BKN050CB=



Latest METAR

298
SAUS70 KWBC 050000 RRG
MTRCLT
METAR KCLT 042352Z 25003KT 10SM FEW060 SCT100 BKN140 27/19 A3001 RMK AO2
SLP152 60000 T02670189 10311 20244 52006


USA.gov is the U.S. government's official web portal to all federal, state and local government web resources and services.